Current Weather

Glendale Muni

Glendale, Arizona (KGEU)

Report from: Monday, August 15, 2022 4:52 PM MST
Current time: Monday, August 15, 2022 5:18 PM MST

Nearby weather
Weather history
Weather forecast

Temperature37.0°C (98.6°F)
Heat index38.7°C (101.6°F)
Dew point18.0°C (64.4°F)
Winds Calm
Visibility10 mi. (16.1 km)
Clouds Few clouds 17,000 ft. (5,182 m)
Altimeter29.72 in.Hg (1006 mB)
Relative humidity33 %
Density altitude2,996 ft. (913 m)
Flight conditions Visual Meteorological Conditions
Raw dataKGEU 152352Z 00000KT 10SM FEW170 37/18 A2972
An error has occurred. This application may no longer respond until reloaded. Reload 🗙